KSCK/SCK METAR and TAF weather

Enter ICAO airport designator
Station Type Date Time Source
KSCK METAR 2018/12/15 03:55 UTC NOAA

KSCK 150355Z 00000KT 6SM HZ CLR 10/07 A3010 RMK AO2 SLP191 T01000072


Station Type Date Time Source
KSCK Decoded METAR 2018/12/15 03:55 UTC NOAA

STOCKTON METROPOLITAN AIRPORT , CA, United States (KSCK) 37-54N 121-14W 10M
Dec 14, 2018 - 10:55 PM EST / 2018.12.15 0355 UTC
Wind: Calm:0
Visibility: 6 mile(s):0
Sky conditions: clear
Weather: haze
Temperature: 50.0 F (10.0 C)
Dew Point: 45.0 F (7.2 C)
Relative Humidity: 82%
Pressure (altimeter): 30.1 in. Hg (1019 hPa)
ob: KSCK 150355Z 00000KT 6SM HZ CLR 10/07 A3010 RMK AO2 SLP191 T01000072
cycle: 4

Station Type Date Time Source
KSCK TAF 2018/12/15 03:39 UTC NOAA

TAF
AMD KSCK 150237Z 1503/1524 14007KT P6SM -SHRA FEW030 OVC050
FM150800 VRB05KT P6SM OVC050


Example: see airport list